KBJI/BJI METAR and TAF weather

Enter ICAO airport designator
Station Type Date Time Source
KBJI METAR 2020/01/18 04:35 UTC NOAA

KBJI 180435Z AUTO 12008KT 4SM -SN SCT019 SCT027 OVC039 M09/M11 A2992 RMK AO2 T10931112


Station Type Date Time Source
KBJI Decoded METAR 2020/01/18 04:35 UTC NOAA

Bemidji, MN, United States (KBJI) 47-30N 094-56W 420M
Jan 17, 2020 - 11:35 PM EST / 2020.01.18 0435 UTC
Wind: from the ESE (120 degrees) at 9 MPH (8 KT):0
Visibility: 4 mile(s):0
Sky conditions: overcast
Weather: light snow
Temperature: 15.3 F (-9.3 C)
Windchill: 3 F (-16 C):1
Dew Point: 11.8 F (-11.2 C)
Relative Humidity: 86%
Pressure (altimeter): 29.92 in. Hg (1013 hPa)
ob: KBJI 180435Z AUTO 12008KT 4SM -SN SCT019 SCT027 OVC039 M09/M11 A2992 RMK AO2 T10931112
cycle: 4

Station Type Date Time Source
KBJI TAF 2020/01/18 03:30 UTC NOAA

TAF
AMD KBJI 180327Z 1803/1824 12012KT 3SM -SN OVC018
FM180800 VRB04KT 3/4SM -SN OVC010
FM181500 29016G25KT 3/4SM -SN BLSN OVC015
FM182000 29019G29KT 3/4SM -SN BLSN OVC014

Example: see airport list